Time;durP1;ratioP1;P1;durP2;ratioP2;P2;SDS_P1;SDS_P2;PMS_P1;PMS_P2;Temp;Humidity;BMP_temperature;BMP_pressure;BME280_temperature;BME280_humidity;BME280_pressure;Samples;Min_cycle;Max_cycle;Signal;HPM_P1;HPM_P2
2023/07/21 00:00:37;;;;;;;;;2.67;2.00;;;;;;;;5005497;28;51159;-64
2023/07/21 00:03:03;;;;;;;;;2.00;2.00;;;;;;;;5007901;28;52015;-64
2023/07/21 00:05:28;;;;;;;;;3.00;2.00;;;;;;;;4994895;28;50930;-63
2023/07/21 00:07:54;;;;;;;;;2.00;2.00;;;;;;;;4996177;28;50975;-63
2023/07/21 00:10:19;;;;;;;;;2.00;2.00;;;;;;;;5014854;28;50971;-64
2023/07/21 00:12:48;;;;;;;;;2.00;2.00;;;;;;;;5014472;28;51090;-63
2023/07/21 00:15:17;;;;;;;;;2.00;1.00;;;;;;;;5014432;28;50869;-63
2023/07/21 00:17:43;;;;;;;;;3.00;3.00;;;;;;;;5014607;28;51193;-63
2023/07/21 00:20:11;;;;;;;;;2.00;2.00;;;;;;;;5014524;28;51224;-63
2023/07/21 00:22:36;;;;;;;;;2.00;2.00;;;;;;;;5014261;28;51019;-63
2023/07/21 00:25:05;;;;;;;;;1.00;1.00;;;;;;;;5014229;28;50990;-63
2023/07/21 00:27:30;;;;;;;;;1.00;1.00;;;;;;;;5014642;28;51071;-63
2023/07/21 00:29:56;;;;;;;;;2.00;1.67;;;;;;;;5014214;28;51095;-63
2023/07/21 00:32:22;;;;;;;;;2.00;2.00;;;;;;;;5014025;28;52009;-63
2023/07/21 00:34:47;;;;;;;;;2.33;2.33;;;;;;;;5014208;28;51091;-63
2023/07/21 00:37:14;;;;;;;;;2.00;1.33;;;;;;;;5014548;28;51049;-63
2023/07/21 00:39:39;;;;;;;;;2.00;2.00;;;;;;;;5014259;28;51320;-63
2023/07/21 00:42:05;;;;;;;;;2.00;2.00;;;;;;;;5014029;28;51116;-63
2023/07/21 00:44:30;;;;;;;;;2.00;2.00;;;;;;;;5014114;28;50984;-63
2023/07/21 00:46:55;;;;;;;;;2.00;2.00;;;;;;;;5013811;28;50967;-64
2023/07/21 00:49:21;;;;;;;;;3.00;2.00;;;;;;;;5014315;28;50985;-63
2023/07/21 00:51:46;;;;;;;;;2.67;2.67;;;;;;;;5013943;28;51876;-63
2023/07/21 00:54:12;;;;;;;;;3.00;2.33;;;;;;;;5014278;28;51077;-63
2023/07/21 00:56:37;;;;;;;;;2.00;2.00;;;;;;;;5014090;28;50955;-62
2023/07/21 00:59:03;;;;;;;;;3.00;3.00;;;;;;;;5014250;28;50912;-62
2023/07/21 01:01:28;;;;;;;;;4.33;4.33;;;;;;;;5013423;28;51689;-63
2023/07/21 01:03:54;;;;;;;;;3.00;3.00;;;;;;;;5013938;28;50917;-64
2023/07/21 01:06:19;;;;;;;;;2.00;2.00;;;;;;;;5014022;28;50989;-63
2023/07/21 01:08:46;;;;;;;;;3.67;2.67;;;;;;;;5013917;28;51149;-63
2023/07/21 01:11:12;;;;;;;;;3.00;3.00;;;;;;;;5013746;28;50940;-63
2023/07/21 01:13:39;;;;;;;;;2.00;2.00;;;;;;;;5013563;28;51071;-63
2023/07/21 01:16:05;;;;;;;;;2.00;2.00;;;;;;;;5013650;28;51073;-62
2023/07/21 01:18:31;;;;;;;;;2.33;2.33;;;;;;;;5013644;28;50998;-64
2023/07/21 01:20:57;;;;;;;;;1.33;1.00;;;;;;;;5012709;28;52055;-63
2023/07/21 01:23:37;;;;;;;;;2.33;2.00;;;;;;;;5013535;28;51093;-63
2023/07/21 01:26:02;;;;;;;;;3.00;2.00;;;;;;;;5013334;28;51183;-63
2023/07/21 01:28:29;;;;;;;;;2.33;2.00;;;;;;;;5013536;28;50921;-63
2023/07/21 01:30:55;;;;;;;;;2.00;1.00;;;;;;;;5012768;28;52249;-63
2023/07/21 01:33:20;;;;;;;;;2.33;2.33;;;;;;;;5013000;28;51161;-63
2023/07/21 01:35:48;;;;;;;;;2.00;2.00;;;;;;;;5013186;28;51006;-63
2023/07/21 01:38:13;;;;;;;;;3.00;3.00;;;;;;;;5013484;28;51271;-63
2023/07/21 01:40:39;;;;;;;;;2.00;2.00;;;;;;;;5012852;28;51565;-64
2023/07/21 01:43:06;;;;;;;;;1.33;1.33;;;;;;;;5013001;28;51177;-63
2023/07/21 01:45:33;;;;;;;;;3.00;2.33;;;;;;;;5012883;28;51096;-63
2023/07/21 01:47:58;;;;;;;;;3.67;3.00;;;;;;;;5013285;28;50916;-62
2023/07/21 01:50:25;;;;;;;;;3.00;2.00;;;;;;;;5012866;28;50960;-62
2023/07/21 01:52:51;;;;;;;;;2.00;2.00;;;;;;;;5013042;28;51086;-63
2023/07/21 01:55:23;;;;;;;;;4.00;4.00;;;;;;;;5013107;28;51276;-63
2023/07/21 01:57:51;;;;;;;;;2.67;2.33;;;;;;;;5013282;28;51134;-67
2023/07/21 02:00:16;;;;;;;;;3.00;3.00;;;;;;;;5002321;28;51841;-63
2023/07/21 02:02:44;;;;;;;;;1.00;1.00;;;;;;;;5009888;28;51048;-63
2023/07/21 02:05:19;;;;;;;;;2.67;2.00;;;;;;;;5012918;28;50837;-63
2023/07/21 02:07:44;;;;;;;;;2.00;2.00;;;;;;;;5012732;28;51111;-62
2023/07/21 02:10:09;;;;;;;;;1.00;1.00;;;;;;;;5012197;28;52314;-62
2023/07/21 02:12:35;;;;;;;;;3.00;2.33;;;;;;;;5012578;28;50921;-63
2023/07/21 02:15:00;;;;;;;;;3.00;3.00;;;;;;;;5012354;28;51052;-62
2023/07/21 02:17:25;;;;;;;;;3.00;2.33;;;;;;;;5012782;28;51086;-63
2023/07/21 02:19:50;;;;;;;;;2.00;2.00;;;;;;;;5011172;28;52914;-63
2023/07/21 02:22:15;;;;;;;;;1.67;1.67;;;;;;;;5012454;28;51087;-63
2023/07/21 02:24:41;;;;;;;;;1.67;1.67;;;;;;;;5013126;28;50867;-63
2023/07/21 02:27:07;;;;;;;;;1.67;1.67;;;;;;;;5012828;28;51173;-63
2023/07/21 02:29:32;;;;;;;;;2.00;2.00;;;;;;;;5012752;28;50947;-63
2023/07/21 02:31:59;;;;;;;;;3.67;3.00;;;;;;;;5011148;28;51130;-63
2023/07/21 02:34:24;;;;;;;;;3.00;3.00;;;;;;;;5014883;28;51058;-62
2023/07/21 02:36:49;;;;;;;;;2.00;2.00;;;;;;;;5015407;28;50903;-63
2023/07/21 02:39:14;;;;;;;;;2.00;2.00;;;;;;;;5013914;28;52017;-63
2023/07/21 02:41:39;;;;;;;;;2.00;2.00;;;;;;;;5015158;28;51160;-62
2023/07/21 02:44:05;;;;;;;;;2.33;2.00;;;;;;;;5015169;28;51080;-64
2023/07/21 02:46:30;;;;;;;;;2.67;2.00;;;;;;;;5015319;28;50919;-63
2023/07/21 02:48:55;;;;;;;;;2.00;2.00;;;;;;;;5014909;28;51701;-63
2023/07/21 02:51:21;;;;;;;;;2.00;2.00;;;;;;;;5014903;28;51188;-64
2023/07/21 02:53:47;;;;;;;;;1.00;1.00;;;;;;;;5015492;28;51192;-63
2023/07/21 02:56:12;;;;;;;;;2.00;2.00;;;;;;;;5015243;28;51285;-65
2023/07/21 02:58:37;;;;;;;;;2.00;2.00;;;;;;;;5014487;28;51906;-64
2023/07/21 03:01:03;;;;;;;;;1.67;1.67;;;;;;;;5014299;28;50900;-63
2023/07/21 03:03:28;;;;;;;;;2.00;2.00;;;;;;;;5015050;28;51038;-63
2023/07/21 03:05:54;;;;;;;;;2.33;1.67;;;;;;;;5014705;28;51380;-63
2023/07/21 03:08:26;;;;;;;;;1.33;1.33;;;;;;;;5014337;28;51735;-63
2023/07/21 03:10:51;;;;;;;;;2.00;2.00;;;;;;;;5014355;28;51986;-63
2023/07/21 03:13:17;;;;;;;;;3.00;3.00;;;;;;;;5014570;28;51176;-63
2023/07/21 03:15:43;;;;;;;;;3.00;3.00;;;;;;;;5014506;28;51205;-62
2023/07/21 03:18:08;;;;;;;;;3.00;3.00;;;;;;;;5014544;28;52618;-62
2023/07/21 03:20:33;;;;;;;;;2.00;2.00;;;;;;;;5014179;28;51057;-62
2023/07/21 03:22:58;;;;;;;;;3.00;3.00;;;;;;;;5014543;28;51173;-64
2023/07/21 03:25:24;;;;;;;;;2.00;2.00;;;;;;;;5014720;28;51040;-63
2023/07/21 03:27:49;;;;;;;;;2.00;2.00;;;;;;;;5014124;28;51945;-63
2023/07/21 03:30:14;;;;;;;;;3.00;3.00;;;;;;;;5013982;28;50962;-63
2023/07/21 03:32:39;;;;;;;;;3.33;3.33;;;;;;;;4976597;28;1098689;-63
2023/07/21 03:35:05;;;;;;;;;2.33;2.33;;;;;;;;5015423;28;51127;-62
2023/07/21 03:37:31;;;;;;;;;2.25;2.25;;;;;;;;4912737;28;2975447;-63
2023/07/21 03:39:56;;;;;;;;;3.00;3.00;;;;;;;;5015010;28;50892;-63
2023/07/21 03:42:22;;;;;;;;;3.00;3.00;;;;;;;;5014928;28;50981;-62
2023/07/21 03:44:48;;;;;;;;;2.00;2.00;;;;;;;;5014454;28;51305;-62
2023/07/21 03:47:17;;;;;;;;;3.33;3.33;;;;;;;;5014561;28;52721;-63
2023/07/21 03:49:43;;;;;;;;;2.33;2.33;;;;;;;;5014931;28;50936;-63
2023/07/21 03:52:08;;;;;;;;;3.00;3.00;;;;;;;;5015200;28;51032;-63
2023/07/21 03:54:33;;;;;;;;;4.00;4.00;;;;;;;;5013775;28;51346;-63
2023/07/21 03:56:58;;;;;;;;;3.00;3.00;;;;;;;;5014734;28;50991;-62
2023/07/21 03:59:23;;;;;;;;;2.00;1.00;;;;;;;;5013347;28;51105;-63
2023/07/21 04:01:49;;;;;;;;;2.00;2.00;;;;;;;;5009990;28;50821;-63
2023/07/21 04:04:15;;;;;;;;;2.00;2.00;;;;;;;;5012597;28;51033;-63
2023/07/21 04:06:42;;;;;;;;;3.00;2.67;;;;;;;;4993633;28;53899;-64
2023/07/21 04:09:08;;;;;;;;;2.33;2.33;;;;;;;;5006187;28;51022;-63
2023/07/21 04:11:33;;;;;;;;;3.67;3.00;;;;;;;;5014699;28;50993;-62
2023/07/21 04:13:59;;;;;;;;;2.00;2.00;;;;;;;;5013452;28;51220;-62
2023/07/21 04:16:24;;;;;;;;;4.67;4.33;;;;;;;;5014106;28;51628;-61
2023/07/21 04:18:49;;;;;;;;;2.33;2.33;;;;;;;;5014123;28;51048;-63
2023/07/21 04:21:15;;;;;;;;;2.67;2.67;;;;;;;;5014396;28;50958;-62
2023/07/21 04:23:40;;;;;;;;;4.00;4.00;;;;;;;;5014513;28;51082;-63
2023/07/21 04:26:07;;;;;;;;;4.67;3.00;;;;;;;;5014286;28;51987;-62
2023/07/21 04:28:32;;;;;;;;;3.00;3.00;;;;;;;;5014312;28;50947;-62
2023/07/21 04:30:57;;;;;;;;;4.00;4.00;;;;;;;;5014101;28;50877;-63
2023/07/21 04:33:22;;;;;;;;;4.00;4.00;;;;;;;;5014517;28;50841;-63
2023/07/21 04:35:48;;;;;;;;;3.00;3.00;;;;;;;;5014178;28;51057;-63
2023/07/21 04:38:14;;;;;;;;;3.00;3.00;;;;;;;;5014091;28;51025;-62
2023/07/21 04:40:41;;;;;;;;;3.67;3.67;;;;;;;;5014082;28;50817;-63
2023/07/21 04:43:06;;;;;;;;;4.00;4.00;;;;;;;;5014185;28;51106;-63
2023/07/21 04:45:32;;;;;;;;;2.00;2.00;;;;;;;;5013670;28;51922;-62
2023/07/21 04:47:57;;;;;;;;;4.00;3.33;;;;;;;;5012614;28;51135;-62
2023/07/21 04:50:23;;;;;;;;;3.00;3.00;;;;;;;;5013891;28;50892;-62
2023/07/21 04:52:48;;;;;;;;;2.00;2.00;;;;;;;;5013957;28;51287;-62
2023/07/21 04:55:14;;;;;;;;;2.00;2.00;;;;;;;;5012880;28;51742;-63
2023/07/21 04:57:39;;;;;;;;;1.67;1.67;;;;;;;;5013533;28;50945;-62
2023/07/21 05:00:09;;;;;;;;;2.33;2.00;;;;;;;;5013422;28;51151;-62
2023/07/21 05:02:34;;;;;;;;;2.67;2.00;;;;;;;;5013717;28;51285;-63
2023/07/21 05:04:59;;;;;;;;;2.33;2.33;;;;;;;;5016926;28;52061;-64
2023/07/21 05:07:25;;;;;;;;;4.00;4.00;;;;;;;;5028871;28;51173;-64
2023/07/21 05:09:51;;;;;;;;;2.67;2.33;;;;;;;;5013690;28;51094;-64
2023/07/21 05:12:16;;;;;;;;;2.33;2.33;;;;;;;;5013785;28;50877;-64
2023/07/21 05:14:41;;;;;;;;;3.00;3.00;;;;;;;;5013475;28;52224;-63
2023/07/21 05:17:07;;;;;;;;;3.33;3.33;;;;;;;;5013626;28;50857;-64
2023/07/21 05:19:32;;;;;;;;;4.00;4.00;;;;;;;;5013873;28;51110;-64
2023/07/21 05:21:57;;;;;;;;;4.00;3.00;;;;;;;;5013798;28;51234;-64
2023/07/21 05:24:22;;;;;;;;;3.67;3.67;;;;;;;;5013854;28;52155;-63
2023/07/21 05:26:48;;;;;;;;;4.00;4.00;;;;;;;;5013748;28;50944;-64
2023/07/21 05:29:13;;;;;;;;;2.00;2.00;;;;;;;;5013915;28;51046;-63
2023/07/21 05:31:39;;;;;;;;;3.00;3.00;;;;;;;;5013115;28;51331;-65
2023/07/21 05:34:07;;;;;;;;;3.00;3.00;;;;;;;;5013259;28;51152;-63
2023/07/21 05:36:32;;;;;;;;;2.67;2.67;;;;;;;;5011372;28;51152;-63
2023/07/21 05:38:57;;;;;;;;;3.00;3.00;;;;;;;;5001992;28;50900;-63
2023/07/21 05:41:23;;;;;;;;;2.00;2.00;;;;;;;;5013417;28;50876;-63
2023/07/21 05:43:48;;;;;;;;;3.00;3.00;;;;;;;;5013272;28;51536;-64
2023/07/21 05:46:13;;;;;;;;;4.00;4.00;;;;;;;;5012985;28;50939;-63
2023/07/21 05:48:38;;;;;;;;;2.33;2.33;;;;;;;;5013726;28;50991;-62
2023/07/21 05:51:04;;;;;;;;;3.67;3.00;;;;;;;;5011725;28;50920;-62
2023/07/21 05:53:29;;;;;;;;;2.67;2.67;;;;;;;;4993008;28;50918;-63
2023/07/21 05:55:54;;;;;;;;;2.33;2.33;;;;;;;;4993209;28;51128;-63
2023/07/21 05:58:20;;;;;;;;;3.33;3.33;;;;;;;;4993067;28;51678;-63
2023/07/21 06:00:46;;;;;;;;;2.00;2.00;;;;;;;;4995725;28;51202;-63
2023/07/21 06:03:11;;;;;;;;;4.00;2.67;;;;;;;;5009677;28;51764;-65
2023/07/21 06:05:36;;;;;;;;;2.00;1.67;;;;;;;;5012476;28;51033;-63
2023/07/21 06:08:04;;;;;;;;;3.67;3.00;;;;;;;;5011862;28;51082;-65
2023/07/21 06:10:30;;;;;;;;;3.00;3.00;;;;;;;;5011021;28;51458;-63
2023/07/21 06:12:55;;;;;;;;;3.00;3.00;;;;;;;;5012188;28;51900;-64
2023/07/21 06:15:21;;;;;;;;;4.33;4.00;;;;;;;;5012331;28;51077;-64
2023/07/21 06:17:46;;;;;;;;;3.00;3.00;;;;;;;;5012882;28;51038;-63
2023/07/21 06:20:12;;;;;;;;;4.00;4.00;;;;;;;;5011298;28;51053;-63
2023/07/21 06:22:37;;;;;;;;;3.33;3.00;;;;;;;;5012513;28;51658;-64
2023/07/21 06:25:03;;;;;;;;;3.00;3.00;;;;;;;;5012475;28;50899;-63
2023/07/21 06:27:28;;;;;;;;;3.00;3.00;;;;;;;;5011411;28;51015;-63
2023/07/21 06:29:54;;;;;;;;;7.33;7.33;;;;;;;;5012495;28;51109;-63
2023/07/21 06:32:19;;;;;;;;;3.67;3.67;;;;;;;;5012230;28;50978;-63
2023/07/21 06:34:45;;;;;;;;;5.00;4.00;;;;;;;;4997973;28;51090;-63
2023/07/21 06:37:10;;;;;;;;;3.00;3.00;;;;;;;;4997671;28;51023;-64
2023/07/21 06:40:17;;;;;;;;;;;;;;;;;;1902644;28;91262718;-63
2023/07/21 06:42:44;;;;;;;;;4.00;4.00;;;;;;;;4415920;28;17189139;-64
2023/07/21 06:45:10;;;;;;;;;4.00;4.00;;;;;;;;5012882;28;50977;-64
2023/07/21 06:47:35;;;;;;;;;5.00;4.33;;;;;;;;4918134;28;2725898;-64
2023/07/21 06:50:01;;;;;;;;;4.67;4.67;;;;;;;;5012047;28;50888;-64
2023/07/21 06:52:26;;;;;;;;;3.00;3.00;;;;;;;;5012241;28;51007;-63
2023/07/21 06:54:52;;;;;;;;;6.67;6.00;;;;;;;;5011002;28;51373;-63
2023/07/21 06:58:53;;;;;;;;;;;;;;;;;;4323788;28;115616555;-64
2023/07/21 07:01:22;;;;;;;;;9.00;9.00;;;;;;;;1030595;28;61066790;-63
2023/07/21 07:04:33;;;;;;;;;;;;;;;;;;3451851;28;79597024;-64
2023/07/21 07:06:58;;;;;;;;;7.00;7.00;;;;;;;;3941806;28;21509810;-62
2023/07/21 07:09:24;;;;;;;;;4.33;4.00;;;;;;;;5011403;28;51033;-64
2023/07/21 07:11:50;;;;;;;;;5.00;5.00;;;;;;;;5011510;28;51339;-64
2023/07/21 07:14:15;;;;;;;;;4.33;4.33;;;;;;;;5011407;28;50988;-63
2023/07/21 07:16:41;;;;;;;;;6.33;5.33;;;;;;;;5010688;28;51027;-62
2023/07/21 07:19:06;;;;;;;;;6.00;6.00;;;;;;;;5011315;28;51105;-63
2023/07/21 07:21:32;;;;;;;;;5.00;4.33;;;;;;;;5014871;28;51404;-63
2023/07/21 07:23:57;;;;;;;;;7.33;7.00;;;;;;;;5014989;28;51036;-63
2023/07/21 07:26:22;;;;;;;;;5.33;5.33;;;;;;;;5015048;28;51060;-63
2023/07/21 07:28:47;;;;;;;;;5.00;5.00;;;;;;;;5013589;28;51049;-63
2023/07/21 07:31:13;;;;;;;;;3.33;3.33;;;;;;;;5014419;28;51299;-64
2023/07/21 07:33:38;;;;;;;;;6.67;6.00;;;;;;;;5015090;28;51097;-64
2023/07/21 07:36:03;;;;;;;;;6.67;6.67;;;;;;;;5014891;28;51171;-63
2023/07/21 07:38:30;;;;;;;;;8.00;8.00;;;;;;;;5014751;28;51253;-62
2023/07/21 07:41:08;;;;;;;;;7.00;7.00;;;;;;;;5014505;28;50992;-63
2023/07/21 07:43:33;;;;;;;;;6.00;5.33;;;;;;;;5014523;28;51093;-62
2023/07/21 07:45:58;;;;;;;;;6.00;5.67;;;;;;;;5014544;28;50984;-62
2023/07/21 07:48:24;;;;;;;;;7.00;6.00;;;;;;;;5014469;28;50960;-64
2023/07/21 07:50:51;;;;;;;;;7.00;6.33;;;;;;;;5014189;28;50945;-63
2023/07/21 07:53:16;;;;;;;;;9.00;7.00;;;;;;;;5014424;28;50894;-63
2023/07/21 07:55:42;;;;;;;;;6.33;6.00;;;;;;;;5002052;28;50826;-63
2023/07/21 07:58:08;;;;;;;;;8.67;7.00;;;;;;;;4995065;28;51140;-62
2023/07/21 08:00:38;;;;;;;;;9.33;8.33;;;;;;;;4994345;28;51114;-63
2023/07/21 08:03:04;;;;;;;;;5.67;5.67;;;;;;;;4994565;28;50943;-63
2023/07/21 08:05:29;;;;;;;;;6.33;6.00;;;;;;;;4994819;28;51095;-64
2023/07/21 08:07:54;;;;;;;;;7.00;6.33;;;;;;;;4996241;28;51341;-65
2023/07/21 08:10:19;;;;;;;;;6.00;6.00;;;;;;;;5014151;28;51793;-65
2023/07/21 08:12:47;;;;;;;;;8.33;7.33;;;;;;;;5010862;28;50995;-65
2023/07/21 08:15:15;;;;;;;;;7.33;7.00;;;;;;;;5014258;28;51071;-64
2023/07/21 08:17:40;;;;;;;;;10.00;10.00;;;;;;;;5014261;28;51005;-63
2023/07/21 08:20:06;;;;;;;;;6.33;6.33;;;;;;;;5013780;28;51049;-64
2023/07/21 08:22:31;;;;;;;;;9.33;6.00;;;;;;;;5019076;28;50975;-63
2023/07/21 08:24:56;;;;;;;;;8.33;7.67;;;;;;;;5014036;28;51275;-64
2023/07/21 08:27:21;;;;;;;;;6.33;6.33;;;;;;;;5014173;28;51181;-64
2023/07/21 08:29:46;;;;;;;;;7.67;7.33;;;;;;;;5011674;28;53775;-64
2023/07/21 08:32:12;;;;;;;;;5.67;5.67;;;;;;;;5007413;28;51139;-64
2023/07/21 08:34:37;;;;;;;;;7.00;7.00;;;;;;;;5001443;28;51625;-64
2023/07/21 08:37:05;;;;;;;;;5.67;5.67;;;;;;;;5013916;28;51017;-67
2023/07/21 08:39:31;;;;;;;;;5.00;5.00;;;;;;;;5013638;28;51270;-65
2023/07/21 08:41:59;;;;;;;;;5.00;4.67;;;;;;;;5013599;28;50904;-66
2023/07/21 08:44:25;;;;;;;;;6.67;6.33;;;;;;;;5013447;28;50951;-64
2023/07/21 08:46:50;;;;;;;;;8.00;7.00;;;;;;;;5013515;28;51191;-64
2023/07/21 08:49:17;;;;;;;;;8.00;6.33;;;;;;;;5012329;28;52648;-65
2023/07/21 08:51:42;;;;;;;;;7.00;7.00;;;;;;;;5013296;28;51018;-65
2023/07/21 08:54:08;;;;;;;;;6.00;5.33;;;;;;;;5013773;28;50979;-65
2023/07/21 08:56:33;;;;;;;;;5.67;5.67;;;;;;;;5013660;28;51241;-65
2023/07/21 08:58:58;;;;;;;;;6.33;5.67;;;;;;;;5012937;28;51023;-66
2023/07/21 09:01:23;;;;;;;;;6.33;5.33;;;;;;;;5012706;28;51173;-64
2023/07/21 09:03:48;;;;;;;;;7.00;7.00;;;;;;;;5013555;28;50943;-65
2023/07/21 09:06:14;;;;;;;;;8.67;8.67;;;;;;;;5013392;28;51373;-64
2023/07/21 09:08:40;;;;;;;;;5.00;5.00;;;;;;;;5012789;28;52663;-64
2023/07/21 09:11:05;;;;;;;;;5.00;5.00;;;;;;;;5012676;28;50963;-64
2023/07/21 09:13:31;;;;;;;;;6.00;5.00;;;;;;;;5013218;28;51192;-65
2023/07/21 09:15:58;;;;;;;;;5.33;5.00;;;;;;;;5012778;28;51261;-65
2023/07/21 09:18:30;;;;;;;;;7.33;6.67;;;;;;;;5012794;28;51053;-65
2023/07/21 09:20:56;;;;;;;;;7.33;6.33;;;;;;;;5013022;28;51201;-64
2023/07/21 09:23:21;;;;;;;;;6.67;6.67;;;;;;;;5013244;28;51030;-65
2023/07/21 09:25:51;;;;;;;;;5.33;5.33;;;;;;;;5013396;28;51301;-64
2023/07/21 09:28:16;;;;;;;;;6.00;6.00;;;;;;;;5013066;28;51129;-65
2023/07/21 09:30:49;;;;;;;;;6.00;6.00;;;;;;;;5012393;28;50893;-65
2023/07/21 09:33:14;;;;;;;;;5.00;5.00;;;;;;;;5012552;28;51066;-66
2023/07/21 09:35:40;;;;;;;;;5.67;5.67;;;;;;;;5012814;28;51004;-65
2023/07/21 09:38:10;;;;;;;;;5.00;5.00;;;;;;;;5012659;28;51844;-65
2023/07/21 09:40:40;;;;;;;;;7.33;6.33;;;;;;;;5013164;28;50975;-64
2023/07/21 09:43:05;;;;;;;;;6.00;5.67;;;;;;;;5012323;28;51050;-64
2023/07/21 09:45:31;;;;;;;;;8.33;7.33;;;;;;;;5012961;28;50866;-65
2023/07/21 09:47:57;;;;;;;;;6.00;4.67;;;;;;;;5012457;28;51096;-65
2023/07/21 09:50:23;;;;;;;;;7.00;7.00;;;;;;;;5012544;28;50943;-65
2023/07/21 09:52:49;;;;;;;;;6.00;6.00;;;;;;;;5011983;28;51049;-65
2023/07/21 09:55:16;;;;;;;;;6.67;6.33;;;;;;;;5012855;28;51049;-63
2023/07/21 09:57:43;;;;;;;;;5.67;5.67;;;;;;;;5010619;28;52581;-64
2023/07/21 10:00:13;;;;;;;;;5.33;5.33;;;;;;;;5012003;28;51163;-64
2023/07/21 10:02:42;;;;;;;;;7.00;7.00;;;;;;;;5010828;28;50950;-66
2023/07/21 10:05:11;;;;;;;;;5.67;5.33;;;;;;;;5012766;28;50796;-64
2023/07/21 10:07:38;;;;;;;;;6.00;6.00;;;;;;;;5011708;28;51909;-64
2023/07/21 10:10:05;;;;;;;;;6.33;5.33;;;;;;;;5011892;28;50865;-64
2023/07/21 10:13:07;;;;;;;;;9.00;9.00;;;;;;;;5010706;28;50964;-63
2023/07/21 10:15:33;;;;;;;;;5.00;5.00;;;;;;;;5011673;28;51029;-64
2023/07/21 10:18:06;;;;;;;;;6.00;6.00;;;;;;;;4651828;28;10205253;-65
2023/07/21 10:20:40;;;;;;;;;6.33;6.33;;;;;;;;5048477;28;51816;-66
2023/07/21 10:23:07;;;;;;;;;7.33;6.33;;;;;;;;5050120;28;9618;-66
2023/07/21 10:25:53;;;;;;;;;7.00;7.00;;;;;;;;5049940;28;9328;-66
2023/07/21 10:28:23;;;;;;;;;5.00;5.00;;;;;;;;5049998;28;9346;-62
2023/07/21 10:30:48;;;;;;;;;6.33;5.33;;;;;;;;5050127;28;9266;-64
2023/07/21 10:33:17;;;;;;;;;6.00;6.00;;;;;;;;5049966;28;9080;-61
2023/07/21 10:35:42;;;;;;;;;7.67;7.67;;;;;;;;5049992;28;8837;-62
2023/07/21 10:38:13;;;;;;;;;9.33;8.67;;;;;;;;5049935;28;9219;-62
2023/07/21 10:40:40;;;;;;;;;5.00;5.00;;;;;;;;5050063;28;8846;-62
2023/07/21 10:43:05;;;;;;;;;6.00;6.00;;;;;;;;5048594;28;9601;-62
2023/07/21 10:45:30;;;;;;;;;6.00;6.00;;;;;;;;5049728;28;9198;-63
2023/07/21 10:47:55;;;;;;;;;5.33;5.33;;;;;;;;5048588;28;8827;-62
2023/07/21 10:50:21;;;;;;;;;9.00;7.33;;;;;;;;5049863;28;9637;-62
2023/07/21 10:52:47;;;;;;;;;5.00;5.00;;;;;;;;5049743;28;8845;-62
2023/07/21 10:55:17;;;;;;;;;3.33;3.00;;;;;;;;5052708;28;8996;-61
2023/07/21 10:57:42;;;;;;;;;4.00;4.00;;;;;;;;5053359;28;8783;-61
2023/07/21 11:00:09;;;;;;;;;4.00;4.00;;;;;;;;5053316;28;8981;-62
2023/07/21 11:02:38;;;;;;;;;9.00;8.67;;;;;;;;5051774;28;8826;-61
2023/07/21 11:05:04;;;;;;;;;4.67;4.67;;;;;;;;5053667;28;9304;-60
2023/07/21 11:07:29;;;;;;;;;5.33;5.33;;;;;;;;5053345;28;9145;-61
2023/07/21 11:09:58;;;;;;;;;5.67;5.00;;;;;;;;5053065;28;8845;-62
2023/07/21 11:12:24;;;;;;;;;6.00;5.00;;;;;;;;5051746;28;8847;-62
2023/07/21 11:14:49;;;;;;;;;6.33;5.00;;;;;;;;5053104;28;9137;-61
2023/07/21 11:17:14;;;;;;;;;5.00;5.00;;;;;;;;5052860;28;8829;-61
2023/07/21 11:19:40;;;;;;;;;3.00;3.00;;;;;;;;5052961;28;8825;-62
2023/07/21 11:22:06;;;;;;;;;3.33;3.33;;;;;;;;5053022;28;8926;-61
2023/07/21 11:24:31;;;;;;;;;6.33;6.33;;;;;;;;5052980;28;8834;-62
2023/07/21 11:27:02;;;;;;;;;4.00;4.00;;;;;;;;5052743;28;9496;-61
2023/07/21 11:29:30;;;;;;;;;5.00;5.00;;;;;;;;5052646;28;8803;-63
2023/07/21 11:31:56;;;;;;;;;3.67;3.33;;;;;;;;5050017;28;9070;-61
2023/07/21 11:34:22;;;;;;;;;2.00;2.00;;;;;;;;5052663;28;9018;-62
2023/07/21 11:36:48;;;;;;;;;4.00;4.00;;;;;;;;5052808;28;8791;-62
2023/07/21 11:39:17;;;;;;;;;3.00;3.00;;;;;;;;5053157;28;9033;-62
2023/07/21 11:41:46;;;;;;;;;3.00;2.67;;;;;;;;5052766;28;8812;-61
2023/07/21 11:44:31;;;;;;;;;4.00;4.00;;;;;;;;5052814;28;8874;-61
2023/07/21 11:46:59;;;;;;;;;5.00;4.00;;;;;;;;5052511;28;9197;-62
2023/07/21 11:49:28;;;;;;;;;6.33;5.00;;;;;;;;5024058;28;51094;-60
2023/07/21 11:51:54;;;;;;;;;2.00;2.00;;;;;;;;5014482;28;50861;-60
2023/07/21 11:54:20;;;;;;;;;3.00;3.00;;;;;;;;5014243;28;51234;-61
2023/07/21 11:56:45;;;;;;;;;3.67;3.67;;;;;;;;5008345;28;51121;-60
2023/07/21 11:59:11;;;;;;;;;7.33;7.00;;;;;;;;5013027;28;51759;-60
2023/07/21 12:01:36;;;;;;;;;2.33;2.33;;;;;;;;5013647;28;50979;-60
2023/07/21 12:04:01;;;;;;;;;4.00;4.00;;;;;;;;5016447;28;50884;-60
2023/07/21 12:06:26;;;;;;;;;3.00;3.00;;;;;;;;5014038;28;50862;-60
2023/07/21 12:08:52;;;;;;;;;4.00;3.33;;;;;;;;5013644;28;51879;-60
2023/07/21 12:11:17;;;;;;;;;4.67;4.67;;;;;;;;5014701;28;50936;-59
2023/07/21 12:13:42;;;;;;;;;3.33;3.00;;;;;;;;5014607;28;50887;-60
2023/07/21 12:16:08;;;;;;;;;5.00;5.00;;;;;;;;5014357;28;50858;-60
2023/07/21 12:18:33;;;;;;;;;4.67;4.67;;;;;;;;5013067;28;51273;-60
2023/07/21 12:20:58;;;;;;;;;7.00;4.33;;;;;;;;5014035;28;51275;-60
2023/07/21 12:23:24;;;;;;;;;5.00;4.67;;;;;;;;5014096;28;51347;-59
2023/07/21 12:25:49;;;;;;;;;5.00;5.00;;;;;;;;5014242;28;51042;-61
2023/07/21 12:28:14;;;;;;;;;3.00;3.00;;;;;;;;5013864;28;52010;-59
2023/07/21 12:30:39;;;;;;;;;5.33;4.67;;;;;;;;5013793;28;51055;-59
2023/07/21 12:33:04;;;;;;;;;6.67;6.00;;;;;;;;5013528;28;51319;-59
2023/07/21 12:35:30;;;;;;;;;12.33;11.33;;;;;;;;5013763;28;50904;-59
2023/07/21 12:37:55;;;;;;;;;5.00;4.33;;;;;;;;5013687;28;52021;-60
2023/07/21 12:40:20;;;;;;;;;5.00;4.67;;;;;;;;5013524;28;50948;-60
2023/07/21 12:42:45;;;;;;;;;4.00;3.67;;;;;;;;5013495;28;51039;-60
2023/07/21 12:45:11;;;;;;;;;4.00;3.00;;;;;;;;5013484;28;51022;-61
2023/07/21 12:47:36;;;;;;;;;5.00;4.33;;;;;;;;5013330;28;52082;-60
2023/07/21 12:50:02;;;;;;;;;5.33;5.33;;;;;;;;5013459;28;51276;-60
2023/07/21 12:52:27;;;;;;;;;4.00;4.00;;;;;;;;5013765;28;50869;-59
2023/07/21 12:54:52;;;;;;;;;3.00;3.00;;;;;;;;5013857;28;50928;-61
2023/07/21 12:57:18;;;;;;;;;4.00;4.00;;;;;;;;5013430;28;51972;-59
2023/07/21 12:59:43;;;;;;;;;3.67;3.67;;;;;;;;5012836;28;51051;-59
2023/07/21 13:02:08;;;;;;;;;5.33;4.33;;;;;;;;5013106;28;51144;-61
2023/07/21 13:04:34;;;;;;;;;2.33;2.00;;;;;;;;5013401;28;51176;-60
2023/07/21 13:07:00;;;;;;;;;6.33;5.00;;;;;;;;5013250;28;52781;-60
2023/07/21 13:09:26;;;;;;;;;2.67;2.67;;;;;;;;5012497;28;51588;-61
2023/07/21 13:11:52;;;;;;;;;3.33;3.33;;;;;;;;5013045;28;50960;-61
2023/07/21 13:14:17;;;;;;;;;1.00;1.00;;;;;;;;5012935;28;51290;-60
2023/07/21 13:16:42;;;;;;;;;4.33;4.33;;;;;;;;5011850;28;51674;-60
2023/07/21 13:19:07;;;;;;;;;3.67;3.67;;;;;;;;5013024;28;50920;-59
2023/07/21 13:21:34;;;;;;;;;6.00;5.67;;;;;;;;5013346;28;51117;-59
2023/07/21 13:23:59;;;;;;;;;3.67;3.67;;;;;;;;5013033;28;51415;-59
2023/07/21 13:26:24;;;;;;;;;4.33;4.33;;;;;;;;5012813;28;51607;-59
2023/07/21 13:28:49;;;;;;;;;6.00;5.00;;;;;;;;5012814;28;51028;-61
2023/07/21 13:31:15;;;;;;;;;6.00;6.00;;;;;;;;5012563;28;51030;-60
2023/07/21 13:33:40;;;;;;;;;4.33;4.33;;;;;;;;5011487;28;51162;-60
2023/07/21 13:36:05;;;;;;;;;4.00;3.67;;;;;;;;5012312;28;51081;-61
2023/07/21 13:38:30;;;;;;;;;2.67;2.67;;;;;;;;5012531;28;51496;-61
2023/07/21 13:40:57;;;;;;;;;5.33;4.00;;;;;;;;5012473;28;51236;-59
2023/07/21 13:43:22;;;;;;;;;4.33;4.00;;;;;;;;5012590;28;51212;-59
2023/07/21 13:45:47;;;;;;;;;4.00;4.00;;;;;;;;5012051;28;51008;-58
2023/07/21 13:48:13;;;;;;;;;3.00;3.00;;;;;;;;5012623;28;50948;-59
2023/07/21 13:50:38;;;;;;;;;4.00;3.67;;;;;;;;5012904;28;50961;-61
2023/07/21 13:53:03;;;;;;;;;6.00;5.00;;;;;;;;5012729;28;51391;-60
2023/07/21 13:55:29;;;;;;;;;4.00;3.33;;;;;;;;5012474;28;52797;-59
2023/07/21 13:57:54;;;;;;;;;4.33;4.33;;;;;;;;5012427;28;50927;-61
2023/07/21 14:00:21;;;;;;;;;6.33;6.33;;;;;;;;5010861;28;51361;-60
2023/07/21 14:02:47;;;;;;;;;7.33;7.33;;;;;;;;5012016;28;51201;-59
2023/07/21 14:05:13;;;;;;;;;8.00;6.00;;;;;;;;5012373;28;51785;-60
2023/07/21 14:07:38;;;;;;;;;5.00;4.67;;;;;;;;5003288;28;50948;-60
2023/07/21 14:10:03;;;;;;;;;5.00;4.33;;;;;;;;5011760;28;51237;-61
2023/07/21 14:12:29;;;;;;;;;5.33;5.33;;;;;;;;5010295;28;50967;-60
2023/07/21 14:14:54;;;;;;;;;5.33;5.33;;;;;;;;5011694;28;51087;-60
2023/07/21 14:17:19;;;;;;;;;3.67;3.00;;;;;;;;5011584;28;50990;-59
2023/07/21 14:19:44;;;;;;;;;6.00;5.00;;;;;;;;5012412;28;51010;-61
2023/07/21 14:22:10;;;;;;;;;4.33;4.33;;;;;;;;5011976;28;51072;-60
2023/07/21 14:24:35;;;;;;;;;4.33;4.33;;;;;;;;5012217;28;51025;-59
2023/07/21 14:27:00;;;;;;;;;4.00;3.67;;;;;;;;5011707;28;51129;-60
2023/07/21 14:29:25;;;;;;;;;4.67;4.67;;;;;;;;5015131;28;51149;-59
2023/07/21 14:31:51;;;;;;;;;3.67;3.67;;;;;;;;5015399;28;51150;-60
2023/07/21 14:34:16;;;;;;;;;8.00;8.00;;;;;;;;5015290;28;52710;-61
2023/07/21 14:36:42;;;;;;;;;6.00;6.00;;;;;;;;5015213;28;51007;-60
2023/07/21 14:39:08;;;;;;;;;3.00;3.00;;;;;;;;5015483;28;50999;-60